Flight Track Log - Related Links

Times and Time Zones

All times are in EDT time to prevent confusion due to time zone crossing. See the JBU917 flight status page for this flight to view local times or setup timezone preferences in your user account.

Time Position Orientation Groundspeed Altitude Reporting Facility
EDT Latitude Longitude Course Direction KTS MPH feet Rate Location/Type
Sat 08:51:37 PM 40.6167 -73.7333 306° West 172 198 1,700  Level New York TRACON
Sat 08:52:37 PM 40.6500 -73.6500 62° Northeast 235 270 4,100 2,750 Climbing New York TRACON
Sat 08:53:00 PM 40.7944 -74.0722 304° West  Level FlightAware Approximate
Sat 08:53:37 PM 40.7000 -73.6000 37° Northeast 273 314 7,200  Level New York TRACON
Sat 08:54:00 PM 40.8483 -74.1799 303° West  Level FlightAware Approximate
Sat 08:54:37 PM 40.7833 -73.5833 North 270 311 10,200  Level New York TRACON
Sat 08:55:00 PM 40.9044 -74.2856 306° West  Level FlightAware Approximate
Sat 08:55:37 PM 40.8667 -73.5833 360° North 296 341 12,200  Level New York TRACON
Sat 08:56:00 PM 40.9615 -74.3905 306° West  Level FlightAware Approximate
Sat 08:57:30 PM 40.9658 -73.7500 308° West 343 395 16,100  Level New York Center
Sat 08:58:29 PM 41.0050 -73.8478 298° West 348 400 17,800 1,866 Climbing New York Center
Sat 08:59:29 PM 41.0433 -73.9653 293° West 338 389 19,800 1,934 Climbing New York Center
Sat 09:00:30 PM 41.0778 -74.0825 291° West 344 396 21,700 1,780 Climbing New York Center
Sat 09:01:27 PM 41.1175 -74.2164 292° West 350 403 23,300 1,846 Climbing New York Center
Sat 09:02:27 PM 41.1436 -74.3225 288° West 350 403 25,300 1,537 Climbing New York Center
Sat 09:03:28 PM 41.1794 -74.4483 291° West 356 410 26,400 1,041 Climbing New York Center
Sat 09:04:28 PM 41.2208 -74.5803 293° West 373 429 27,400 1,059 Climbing New York Center
Sat 09:05:27 PM 41.2583 -74.7122 291° West 378 435 28,500 1,650 Climbing New York Center
Sat 09:06:28 PM 41.2992 -74.8581 290° West 384 442 30,700 1,869 Climbing New York Center
Sat 09:07:29 PM 41.3364 -74.9847 291° West 378 435 32,300 992 Climbing New York Center
Sat 09:08:29 PM 41.3714 -75.1114 290° West 373 429 32,700 650 Climbing New York Center
Sat 09:09:29 PM 41.4064 -75.2353 291° West 373 429 33,600 942 Climbing New York Center
Sat 09:10:30 PM 41.4431 -75.3622 291° West 373 429 34,600 850 Climbing New York Center
Sat 09:11:29 PM 41.4775 -75.4919 290° West 373 429 35,300 650 Climbing New York Center
Sat 09:12:30 PM 41.5144 -75.6136 292° West 373 429 35,900 353 Climbing New York Center
Sat 09:13:28 PM 41.5506 -75.7439 290° West 373 429 36,000 50 Climbing New York Center
Sat 09:14:29 PM 41.5908 -75.8772 292° West 379 436 36,000  Level New York Center
Sat 09:15:28 PM 41.6267 -76.0103 290° West 379 436 36,000  Level New York Center
Sat 09:16:27 PM 41.6644 -76.1439 291° West 379 436 36,000  Level New York Center
Sat 09:17:29 PM 41.7019 -76.2775 291° West 384 442 36,000  Level New York Center
Sat 09:18:27 PM 41.7411 -76.4169 291° West 384 442 36,000  Level New York Center
Sat 09:19:29 PM 41.7731 -76.5364 290° West 389 448 36,000  Level New York Center
Sat 09:20:30 PM 41.8119 -76.6761 291° West 394 453 36,000  Level New York Center
Sat 09:21:28 PM 41.8489 -76.8103 290° West 394 453 36,000  Level New York Center
Sat 09:22:20 PM 41.8881 -76.9514 290° West 448 516 36,000  Level Cleveland Center
Sat 09:23:20 PM 41.9256 -77.0886 290° West 418 481 36,000  Level Cleveland Center
Sat 09:24:20 PM 41.9611 -77.2264 289° West 406 467 36,000  Level Cleveland Center
Sat 09:25:20 PM 42.0006 -77.3697 290° West 401 461 36,000  Level Cleveland Center
Sat 09:26:20 PM 42.0397 -77.5103 291° West 401 461 36,000  Level Cleveland Center
Sat 09:27:20 PM 42.0747 -77.6514 289° West 401 461 36,000  Level Cleveland Center
Sat 09:28:20 PM 42.1117 -77.7953 289° West 401 461 36,000  Level Cleveland Center
Sat 09:29:20 PM 42.1506 -77.9364 290° West 401 461 36,000  Level Cleveland Center
Sat 09:30:20 PM 42.1869 -78.0778 289° West 401 461 36,000  Level Cleveland Center
Sat 09:31:20 PM 42.2256 -78.2194 290° West 401 461 36,000  Level Cleveland Center
Sat 09:32:20 PM 42.2617 -78.3611 289° West 401 461 36,000  Level Cleveland Center
Sat 09:33:20 PM 42.2975 -78.5003 289° West 401 461 36,000  Level Cleveland Center
Sat 09:34:20 PM 42.3336 -78.6450 289° West 401 461 36,000  Level Cleveland Center
Sat 09:35:20 PM 42.3692 -78.7844 289° West 401 461 36,000  Level Cleveland Center
Sat 09:36:20 PM 42.4047 -78.9297 288° West 401 461 36,000  Level Cleveland Center
Sat 09:37:20 PM 42.4400 -79.0722 289° West 401 461 36,000  Level Cleveland Center
Sat 09:38:20 PM 42.4772 -79.2150 290° West 401 461 36,000  Level Cleveland Center
Sat 09:39:20 PM 42.4978 -79.3722 280° West 401 461 36,000  Level Cleveland Center
Sat 09:40:20 PM 42.5033 -79.5242 273° West 411 473 36,000  Level Cleveland Center
Sat 09:41:20 PM 42.5131 -79.6789 275° West 411 473 36,000  Level Cleveland Center
Sat 09:42:20 PM 42.5203 -79.8339 274° West 416 479 36,000  Level Cleveland Center
Sat 09:43:20 PM 42.5253 -79.9944 272° West 423 487 36,000  Level Cleveland Center
Sat 09:44:20 PM 42.5303 -80.1464 273° West 423 487 36,000  Level Cleveland Center
Sat 09:45:20 PM 42.5369 -80.3042 273° West 418 481 36,000  Level Cleveland Center
Sat 09:46:20 PM 42.5414 -80.4422 273° West 423 487 36,000  Level Cleveland Center
Sat 09:47:20 PM 42.5497 -80.6000 274° West 423 487 36,000  Level Cleveland Center
Sat 09:48:20 PM 42.5539 -80.7494 272° West 417 480 36,000  Level Cleveland Center
Sat 09:49:20 PM 42.5597 -80.9075 273° West 417 480 36,000  Level Cleveland Center
Sat 09:50:20 PM 42.5675 -81.0625 274° West 418 481 36,000  Level Cleveland Center
Sat 09:51:20 PM 42.5750 -81.2231 274° West 418 481 36,000  Level Cleveland Center
Sat 09:52:20 PM 42.5783 -81.3783 272° West 426 490 36,000  Level Cleveland Center
Sat 09:53:20 PM 42.5981 -81.5281 280° West 413 475 36,000  Level Cleveland Center
Sat 09:54:20 PM 42.6258 -81.6922 283° West 413 475 36,000  Level Cleveland Center
Sat 09:55:20 PM 42.6472 -81.8253 282° West 413 475 36,000  Level Cleveland Center
Sat 09:56:20 PM 42.6769 -81.9783 285° West 413 475 36,000  Level Cleveland Center
Sat 09:57:20 PM 42.7000 -82.1286 282° West 413 475 36,000  Level Cleveland Center
Sat 09:58:20 PM 42.7269 -82.2789 284° West 413 475 36,000  Level Cleveland Center
Sat 09:59:20 PM 42.7517 -82.4294 283° West 413 475 36,000  Level Cleveland Center
Sat 10:00:20 PM 42.7764 -82.5831 282° West 419 482 36,000  Level Cleveland Center
Sat 10:01:20 PM 42.8028 -82.7339 283° West 419 482 36,000  Level Cleveland Center
Sat 10:02:20 PM 42.8122 -82.8900 275° West 414 476 36,000  Level Cleveland Center
Sat 10:03:20 PM 42.8194 -83.0486 274° West 414 476 36,000  Level Cleveland Center
Sat 10:04:20 PM 42.8264 -83.2047 274° West 414 476 36,000  Level Cleveland Center
Sat 10:05:20 PM 42.8331 -83.3636 273° West 419 482 36,000  Level Cleveland Center
Sat 10:06:20 PM 42.8417 -83.5197 274° West 424 488 36,000  Level Cleveland Center
Sat 10:07:20 PM 42.8478 -83.6814 273° West 424 488 36,000  Level Cleveland Center
Sat 10:08:20 PM 42.8539 -83.8403 273° West 424 488 36,000  Level Cleveland Center
Sat 10:09:20 PM 42.8619 -83.9967 274° West 424 488 36,000  Level Cleveland Center
Sat 10:10:20 PM 42.8675 -84.1583 273° West 424 488 36,000  Level Cleveland Center
Sat 10:11:20 PM 42.8728 -84.3175 273° West 424 488 36,000 -410 Level Cleveland Center
Sat 10:12:17 PM 42.8806 -84.4797 274° West 429 494 35,200 -915 Descending Chicago Center
Sat 10:13:18 PM 42.8794 -84.6411 270° West 428 493 34,200 -992 Descending Chicago Center
Sat 10:14:18 PM 42.8619 -84.8036 262° West 433 498 33,200 -992 Descending Chicago Center
Sat 10:15:19 PM 42.8453 -84.9672 262° West 435 501 32,200 -595 Descending Chicago Center
Sat 10:16:19 PM 42.8264 -85.1342 261° West 444 511 32,000 -99 Descending Chicago Center
Sat 10:17:20 PM 42.8083 -85.2978 261° West 440 506 32,000 -248 Level Chicago Center
Sat 10:18:20 PM 42.7900 -85.4628 261° West 439 505 31,500 -1,339 Descending Chicago Center
Sat 10:19:21 PM 42.7631 -85.6278 258° West 444 511 29,300 -2,083 Descending Chicago Center
Sat 10:20:21 PM 42.7350 -85.7853 256° West 429 494 27,300 -1,983 Descending Chicago Center
Sat 10:21:22 PM 42.7075 -85.9369 256° West 414 476 25,300 -1,934 Descending Chicago Center
Sat 10:22:22 PM 42.6806 -86.0872 256° West 408 470 23,400 -1,835 Descending Chicago Center
Sat 10:23:23 PM 42.6539 -86.2300 256° West 392 451 21,600 -1,686 Descending Chicago Center
Sat 10:24:23 PM 42.6253 -86.3717 255° West 390 449 20,000 -1,537 Descending Chicago Center
Sat 10:25:24 PM 42.5992 -86.5144 256° West 390 449 18,500 -1,438 Descending Chicago Center
Sat 10:26:24 PM 42.5731 -86.6547 256° West 385 443 17,100 -1,438 Descending Chicago Center
Sat 10:27:25 PM 42.5425 -86.7931 253° West 384 442 15,600 -1,438 Descending Chicago Center
Sat 10:28:25 PM 42.5067 -86.9242 250° West 374 430 14,200 -1,438 Descending Chicago Center
Sat 10:29:26 PM 42.4714 -87.0533 250° West 369 425 12,700 -1,388 Descending Chicago Center
Sat 10:30:26 PM 42.4375 -87.1789 250° West 358 412 11,400 -1,339 Descending Chicago Center
Sat 10:31:27 PM 42.4028 -87.3036 249° West 354 407 10,000 -694 Descending Chicago Center
Sat 10:32:27 PM 42.3675 -87.4336 250° West 348 400 10,000  Level Chicago Center
Sat 10:33:28 PM 42.3256 -87.5517 244° Southwest 350 403 10,000  Level Chicago Center
Sat 10:34:28 PM 42.2497 -87.6303 218° Southwest 345 397 10,000  Level Chicago Center
Sat 10:35:29 PM 42.1744 -87.7089 218° Southwest 345 397 10,000 -545 Level Chicago Center
Sat 10:36:29 PM 42.1106 -87.7767 218° Southwest 296 341 8,900 -1,277 Descending Chicago Center
Sat 10:37:03 PM 42.0833 -87.8333 237° Southwest 286 329 8,000 -1,080 Descending Chicago TRACON
Sat 10:38:09 PM 42.0667 -87.9500 259° West 274 315 7,100 -524 Descending Chicago TRACON
Sat 10:39:09 PM 42.0667 -88.0333 270° West 206 237 6,900 -750 Descending Chicago TRACON
Sat 10:40:09 PM 42.0667 -88.1000 270° West 185 213 5,600 -1,390 Descending Chicago TRACON
Sat 10:40:31 PM 42.0667 -88.1336 270° West 194 223 5,000 -1,463 Descending Chicago Center
Sat 10:41:31 PM 42.0236 -88.1464 192° South 179 206 3,600 -1,200 Descending Chicago Center
Sat 10:42:16 PM 42.0000 -88.1167 137° Southeast 173 199 2,900 -606 Descending Chicago TRACON
Sat 10:43:10 PM 41.9833 -88.0667 114° Southeast 167 192 2,600 -526 Descending Chicago TRACON
Sat 10:44:10 PM 41.9667 -88.0167 114° Southeast 160 184 1,900 -200 Descending Chicago TRACON
Sat 10:45:10 PM 41.9667 -87.9667 90° East 143 165 2,200 1,048 Climbing Chicago TRACON
Sat 10:46:16 PM 42.0000 -87.9000 56° Northeast 208 239 4,100 905 Climbing Chicago TRACON
Sat 10:47:16 PM 42.0667 -87.9333 340° North 229 264 4,100  Level Chicago TRACON
Sat 10:48:10 PM 42.0833 -88.0000 289° West 227 261 4,100 -474 Level Chicago TRACON
Sat 10:49:10 PM 42.0833 -88.0833 270° West 222 255 3,200 -714 Descending Chicago TRACON
Sat 10:50:16 PM 42.0667 -88.1500 251° West 188 216 2,600 -494 Descending Chicago TRACON
Sat 10:50:35 PM 42.0556 -88.1622 219° Southwest 208 239 2,500 -75 Descending Chicago Center
Sat 10:51:36 PM 42.0111 -88.1614 179° South 176 203 2,500  Level Chicago Center
Sat 10:52:36 PM 41.9836 -88.1181 130° Southeast 172 198 2,500 59 Level Chicago Center
Sat 10:53:17 PM 41.9667 -88.0667 114° Southeast 167 192 2,600 -316 Climbing Chicago TRACON
Sat 10:54:11 PM 41.9667 -88.0167 90° East 165 190 2,000 -684 Descending Chicago TRACON
Sat 10:55:11 PM 41.9667 -87.9667 90° East 136 157 1,300 -700 Descending Chicago TRACON

Login

Don't have an account? Register now (free) for customized features, flight alerts, and more!